Flight Track Log - Related Links

Times and Time Zones

All times are in EDT time to prevent confusion due to time zone crossing. See the DAL61 flight status page for this flight to view local times or setup timezone preferences in your user account.

Time Position Orientation Groundspeed Altitude Reporting Facility
EDT Latitude Longitude Course Direction KTS MPH feet Rate Location/Type
Sat 10:55:46 PM 33.6347 -84.4831 145° Southeast 469 540 2,500  Level Atlanta Center
Sat 10:56:03 PM 33.6333 -84.5167 267° West 209 241 3,000 2,104 Climbing Atlanta TRACON
Sat 10:57:03 PM 33.6333 -84.5833 270° West 243 280 5,200 2,400 Climbing Atlanta TRACON
Sat 10:58:00 PM 33.2585 -84.1415 140° Southeast  Level FlightAware Approximate
Sat 10:58:03 PM 33.5833 -84.6500 228° Southwest 279 321 7,800  Level Atlanta TRACON
Sat 10:59:00 PM 33.1599 -84.0431 140° Southeast  Level FlightAware Approximate
Sat 10:59:03 PM 33.5333 -84.5833 132° Southeast 312 359 10,400  Level Atlanta TRACON
Sat 11:00:00 PM 33.0646 -83.9510 145° Southeast  Level FlightAware Approximate
Sat 11:00:03 PM 33.4667 -84.5000 134° Southeast 368 423 11,500  Level Atlanta TRACON
Sat 11:01:46 PM 33.3328 -84.3222 132° Southeast 400 460 14,000 1,840 Climbing Atlanta Center
Sat 11:02:46 PM 33.2556 -84.2178 131° Southeast 418 481 16,500 2,300 Climbing Atlanta Center
Sat 11:03:46 PM 33.1786 -84.1083 130° Southeast 424 488 18,600 1,750 Climbing Atlanta Center
Sat 11:04:46 PM 33.0950 -83.9942 131° Southeast 446 513 20,000 1,350 Climbing Atlanta Center
Sat 11:05:46 PM 33.0053 -83.9100 142° Southeast 451 519 21,300 1,400 Climbing Atlanta Center
Sat 11:06:46 PM 32.8944 -83.8186 145° Southeast 464 534 22,800 2,300 Climbing Atlanta Center
Sat 11:07:46 PM 32.7878 -83.7300 145° Southeast 478 550 25,900 2,350 Climbing Atlanta Center
Sat 11:08:46 PM 32.6853 -83.6439 145° Southeast 467 537 27,500 1,350 Climbing Atlanta Center
Sat 11:09:46 PM 32.5847 -83.5433 140° Southeast 462 532 28,600 1,100 Climbing Atlanta Center
Sat 11:10:46 PM 32.4861 -83.4453 140° Southeast 467 537 29,700 700 Climbing Atlanta Center
Sat 11:11:46 PM 32.3853 -83.3428 139° Southeast 473 544 30,000 150 Climbing Atlanta Center
Sat 11:12:46 PM 32.2867 -83.2428 139° Southeast 473 544 30,000  Level Atlanta Center
Sat 11:13:26 PM 32.2081 -83.1650 140° Southeast 475 547 30,000  Level Jacksonville Center
Sat 11:14:26 PM 32.1206 -83.0789 140° Southeast 475 547 30,000  Level Jacksonville Center
Sat 11:15:26 PM 32.0183 -82.9783 140° Southeast 475 547 30,000  Level Jacksonville Center
Sat 11:16:26 PM 31.9181 -82.8803 140° Southeast 475 547 30,000  Level Jacksonville Center
Sat 11:17:26 PM 31.8178 -82.7825 140° Southeast 475 547 30,000  Level Jacksonville Center
Sat 11:18:26 PM 31.7194 -82.6850 140° Southeast 475 547 30,000  Level Jacksonville Center
Sat 11:19:26 PM 31.6233 -82.5850 138° Southeast 464 534 30,000  Level Jacksonville Center
Sat 11:20:26 PM 31.5292 -82.4831 137° Southeast 464 534 30,000  Level Jacksonville Center
Sat 11:21:26 PM 31.4306 -82.3836 139° Southeast 464 534 30,000  Level Jacksonville Center
Sat 11:22:26 PM 31.3258 -82.2772 139° Southeast 464 534 30,000  Level Jacksonville Center
Sat 11:23:26 PM 31.2292 -82.1758 138° Southeast 464 534 30,000  Level Jacksonville Center
Sat 11:24:26 PM 31.1325 -82.0747 138° Southeast 464 534 30,000  Level Jacksonville Center
Sat 11:25:26 PM 31.0336 -81.9736 139° Southeast 464 534 30,000  Level Jacksonville Center
Sat 11:26:26 PM 30.9347 -81.8731 139° Southeast 464 534 30,000  Level Jacksonville Center
Sat 11:27:26 PM 30.8358 -81.7725 139° Southeast 464 534 30,000  Level Jacksonville Center
Sat 11:28:26 PM 30.7389 -81.6697 138° Southeast 464 534 30,000  Level Jacksonville Center
Sat 11:29:26 PM 30.6439 -81.5717 138° Southeast 464 534 30,000  Level Jacksonville Center
Sat 11:30:26 PM 30.5447 -81.4742 140° Southeast 464 534 30,000  Level Jacksonville Center
Sat 11:31:26 PM 30.4603 -81.3864 138° Southeast 464 534 30,000  Level Jacksonville Center
Sat 11:32:26 PM 30.3608 -81.2892 140° Southeast 464 534 30,000  Level Jacksonville Center
Sat 11:33:26 PM 30.2656 -81.1897 138° Southeast 464 534 30,000  Level Jacksonville Center
Sat 11:34:26 PM 30.1683 -81.0956 140° Southeast 464 534 30,000  Level Jacksonville Center
Sat 11:35:26 PM 30.0667 -80.9967 140° Southeast 464 534 30,000  Level Jacksonville Center
Sat 11:37:12 PM 29.8917 -80.8181 138° Southeast 471 542 30,000  Level Miami Center
Sat 11:38:10 PM 29.7922 -80.7236 140° Southeast 471 542 30,000  Level Miami Center
Sat 11:39:11 PM 29.7011 -80.6203 135° Southeast 462 532 30,000  Level Miami Center
Sat 11:40:12 PM 29.6206 -80.5053 129° Southeast 456 525 30,000  Level Miami Center
Sat 11:41:10 PM 29.5381 -80.3928 130° Southeast 461 531 30,000  Level Miami Center
Sat 11:42:09 PM 29.4553 -80.2806 130° Southeast 461 531 30,000  Level Miami Center
Sat 11:43:09 PM 29.3703 -80.1683 131° Southeast 461 531 30,000  Level Miami Center
Sat 11:44:10 PM 29.2894 -80.0589 130° Southeast 461 531 30,000  Level Miami Center
Sat 11:45:10 PM 29.2083 -79.9472 130° Southeast 461 531 30,000  Level Miami Center
Sat 11:46:12 PM 29.1169 -79.8425 135° Southeast 453 521 30,000  Level Miami Center
Sat 11:47:10 PM 29.0292 -79.7450 136° Southeast 458 527 30,000 305 Level Miami Center
Sat 11:48:10 PM 28.9350 -79.6456 137° Southeast 458 527 30,600 545 Climbing Miami Center
Sat 11:49:11 PM 28.8411 -79.5389 135° Southeast 465 535 31,100 655 Climbing Miami Center
Sat 11:50:09 PM 28.7472 -79.4322 135° Southeast 475 547 31,900 450 Climbing Miami Center
Sat 11:51:11 PM 28.6531 -79.3236 135° Southeast 480 552 32,000  Climbing Miami Center
Sat 11:52:10 PM 28.5547 -79.2153 136° Southeast 480 552 31,900  Descending Miami Center
Sat 11:53:09 PM 28.4561 -79.1092 137° Southeast 480 552 32,000 50 Climbing Miami Center
Sat 11:54:09 PM 28.3597 -79.0058 137° Southeast 480 552 32,000 -50 Level Miami Center
Sat 11:55:10 PM 28.2650 -78.9097 138° Southeast 474 545 31,900  Descending Miami Center
Sat 11:56:11 PM 28.1578 -78.8231 145° Southeast 466 536 32,000 50 Climbing Miami Center
Sat 11:57:10 PM 28.0461 -78.7386 146° Southeast 472 543 32,000  Level Miami Center
Sat 11:58:10 PM 27.9364 -78.6664 150° Southeast 477 549 32,000  Level Miami Center
Sat 11:59:09 PM 27.8225 -78.5869 148° Southeast 477 549 32,000  Level Miami Center
Sun 12:00:11 AM 27.7086 -78.5128 150° Southeast 477 549 32,000  Level Miami Center
Sun 12:01:10 AM 27.5989 -78.4244 144° Southeast 482 555 32,000  Level Miami Center
Sun 12:02:11 AM 27.5083 -78.3083 131° Southeast 476 548 32,000  Level Miami Center
Sun 12:03:09 AM 27.4300 -78.1903 127° Southeast 471 542 32,000  Level Miami Center
Sun 12:04:09 AM 27.3494 -78.0958 134° Southeast 473 544 32,000  Level Miami Center
Sun 12:05:11 AM 27.2689 -77.9711 126° Southeast 473 544 32,000  Level Miami Center
Sun 12:06:09 AM 27.1861 -77.8536 128° Southeast 473 544 32,000  Level Miami Center
Sun 12:07:10 AM 27.1014 -77.7386 130° Southeast 480 552 32,000  Level Miami Center
Sun 12:08:10 AM 27.0183 -77.6167 127° Southeast 480 552 32,000  Level Miami Center
Sun 12:09:10 AM 26.9333 -77.5042 130° Southeast 467 537 32,000  Level Miami Center
Sun 12:10:11 AM 26.8419 -77.3803 130° Southeast 472 543 32,000  Level Miami Center
Sun 12:11:10 AM 26.7608 -77.2706 130° Southeast 472 543 32,000  Level Miami Center
Sun 12:12:11 AM 26.6753 -77.1494 128° Southeast 479 551 32,000  Level Miami Center
Sun 12:13:10 AM 26.5919 -77.0331 129° Southeast 479 551 32,000  Level Miami Center
Sun 12:14:10 AM 26.5064 -76.9189 130° Southeast 478 550 32,000  Level Miami Center
Sun 12:15:10 AM 26.4228 -76.8031 129° Southeast 478 550 32,000  Level Miami Center
Sun 12:16:09 AM 26.3369 -76.6872 130° Southeast 478 550 32,000  Level Miami Center
Sun 12:17:09 AM 26.2553 -76.5783 130° Southeast 478 550 32,000  Level Miami Center
Sun 12:18:09 AM 26.1694 -76.4606 129° Southeast 478 550 32,000  Level Miami Center
Sun 12:19:09 AM 26.0814 -76.3428 130° Southeast 486 559 32,000  Level Miami Center
Sun 12:20:10 AM 25.9972 -76.2322 130° Southeast 474 545 32,000  Level Miami Center
Sun 12:21:10 AM 25.9131 -76.1169 129° Southeast 484 557 32,000  Level Miami Center
Sun 12:22:10 AM 25.8269 -76.0022 130° Southeast 484 557 32,000  Level Miami Center
Sun 12:23:10 AM 25.7406 -75.8875 130° Southeast 479 551 32,000  Level Miami Center
Sun 12:24:09 AM 25.6581 -75.7753 129° Southeast 474 545 32,000  Level Miami Center
Sun 12:25:09 AM 25.5694 -75.6583 130° Southeast 481 554 32,000  Level Miami Center
Sun 12:26:11 AM 25.4767 -75.5419 131° Southeast 486 559 32,000  Level Miami Center
Sun 12:27:09 AM 25.3939 -75.4278 129° Southeast 480 552 32,000 50 Level Miami Center
Sun 12:28:10 AM 25.3008 -75.3142 132° Southeast 485 558 32,100 541 Climbing Miami Center
Sun 12:29:11 AM 25.2139 -75.2003 130° Southeast 485 558 33,100 908 Climbing Miami Center
Sun 12:30:09 AM 25.1269 -75.0844 130° Southeast 485 558 33,900 458 Climbing Miami Center
Sun 12:31:09 AM 25.0378 -74.9689 130° Southeast 479 551 34,000 49 Climbing Miami Center
Sun 12:32:12 AM 24.9528 -74.8578 130° Southeast 479 551 34,000  Level Miami Center
Sun 12:33:09 AM 24.8569 -74.7425 132° Southeast 485 558 34,000  Level Miami Center
Sun 12:34:11 AM 24.7633 -74.6319 133° Southeast 485 558 34,000  Level Miami Center
Sun 12:35:10 AM 24.6739 -74.5217 132° Southeast 490 564 34,000  Level Miami Center
Sun 12:36:09 AM 24.5803 -74.4136 134° Southeast 490 564 34,000  Level Miami Center
Sun 12:37:09 AM 24.4928 -74.3014 131° Southeast 490 564 34,000  Level Miami Center
Sun 12:38:12 AM 24.4092 -74.1867 129° Southeast 484 557 34,000  Level Miami Center
Sun 12:39:11 AM 24.3214 -74.0678 129° Southeast 490 564 34,000  Level Miami Center
Sun 12:40:09 AM 24.2356 -73.9467 128° Southeast 495 570 34,000  Level Miami Center
Sun 12:41:09 AM 24.1517 -73.8303 128° Southeast 500 575 34,000  Level Miami Center
Sun 12:42:09 AM 24.0617 -73.7186 131° Southeast 494 568 34,000  Level Miami Center
Sun 12:43:12 AM 23.9714 -73.6050 131° Southeast 494 568 34,000  Level Miami Center
Sun 12:44:12 AM 23.8789 -73.4869 131° Southeast 500 575 34,000  Level Miami Center
Sun 12:45:11 AM 23.7864 -73.3736 132° Southeast 500 575 34,000  Level Miami Center
Sun 12:46:10 AM 23.6981 -73.2603 130° Southeast 500 575 34,000  Level Miami Center
Sun 12:47:09 AM 23.6078 -73.1472 131° Southeast 500 575 34,000  Level Miami Center
Sun 12:48:10 AM 23.5150 -73.0322 131° Southeast 495 570 34,000  Level Miami Center
Sun 12:49:09 AM 23.4264 -72.9194 131° Southeast 501 577 34,000  Level Miami Center
Sun 12:50:10 AM 23.3464 -72.8181 131° Southeast 501 577 34,000  Level Miami Center
Sun 12:51:10 AM 23.2536 -72.7078 132° Southeast 495 570 34,000  Level Miami Center
Sun 12:52:12 AM 23.1564 -72.5936 133° Southeast 500 575 34,000  Level Miami Center
Sun 12:53:12 AM 23.0697 -72.4814 130° Southeast 500 575 34,000  Level Miami Center
Sun 12:54:11 AM 22.9764 -72.3606 130° Southeast 481 554 34,000  Level Miami Center
Sun 12:55:12 AM 22.8875 -72.2533 132° Southeast 481 554 34,000  Level Miami Center
Sun 12:56:09 AM 22.7983 -72.1417 131° Southeast 481 554 34,000  Level Miami Center
Sun 12:57:09 AM 22.7094 -72.0344 132° Southeast 481 554 34,000  Level Miami Center
Sun 12:58:11 AM 22.6225 -71.9253 131° Southeast 481 554 34,000  Level Miami Center
Sun 12:59:10 AM 22.5353 -71.8142 130° Southeast 481 554 34,000  Level Miami Center
Sun 01:00:11 AM 22.4439 -71.7053 132° Southeast 481 554 34,000  Level Miami Center
Sun 01:01:09 AM 22.3567 -71.5967 131° Southeast 481 554 34,000  Level Miami Center
Sun 01:02:10 AM 22.2672 -71.4881 132° Southeast 481 554 34,000  Level Miami Center
Sun 01:03:09 AM 22.1781 -71.3819 132° Southeast 481 554 34,000  Level Miami Center
Sun 01:04:10 AM 22.0886 -71.2736 132° Southeast 481 554 34,000  Level Miami Center
Sun 01:05:10 AM 21.9969 -71.1658 133° Southeast 481 554 34,000  Level Miami Center
Sun 01:06:12 AM 21.9094 -71.0578 131° Southeast 481 554 34,000  Level Miami Center
Sun 01:07:11 AM 21.8197 -70.9500 132° Southeast 481 554 34,000  Level Miami Center
Sun 01:08:12 AM 21.7300 -70.8422 132° Southeast 481 554 34,000  Level Miami Center
Sun 01:09:09 AM 21.6403 -70.7369 133° Southeast 481 554 34,000  Level Miami Center
Sun 01:10:11 AM 21.5681 -70.6511 132° Southeast 481 554 34,000  Level Miami Center
Sun 01:11:09 AM 21.4694 -70.5356 133° Southeast 481 554 34,000  Level Miami Center
Sun 01:12:09 AM 21.3772 -70.4264 132° Southeast 481 554 34,000  Level Miami Center
Sun 01:13:09 AM 21.2875 -70.3217 133° Southeast 481 554 34,000  Level Miami Center
Sun 01:14:09 AM 21.1997 -70.2214 133° Southeast 476 548 34,000  Level Miami Center
Sun 01:15:11 AM 21.1075 -70.1147 133° Southeast 476 548 34,000  Level Miami Center
Sun 01:16:09 AM 21.0097 -70.0200 138° Southeast 481 554 34,000  Level Miami Center
Sun 01:17:09 AM 20.9194 -69.9158 133° Southeast 475 547 34,000  Level Miami Center
Sun 01:18:09 AM 20.8272 -69.8117 133° Southeast 475 547 34,000  Level Miami Center
Sun 01:19:12 AM 20.7414 -69.7078 131° Southeast 475 547 34,000  Level Miami Center
Sun 01:20:09 AM 20.6511 -69.6042 133° Southeast 480 552 34,000  Level Miami Center
Sun 01:21:10 AM 20.5586 -69.4983 133° Southeast 480 552 34,000  Level Miami Center
Sun 01:22:09 AM 20.4703 -69.3947 132° Southeast 480 552 34,000 -100 Level Miami Center
Sun 01:23:10 AM 20.3778 -69.2894 133° Southeast 480 552 33,800 -488 Descending Miami Center
Sun 01:24:12 AM 20.2872 -69.1839 132° Southeast 480 552 33,000 -400 Descending Miami Center
Sun 01:25:10 AM 20.1986 -69.0764 131° Southeast 480 552 33,000  Level Miami Center
Sun 01:26:10 AM 20.1061 -68.9736 134° Southeast 480 552 33,000  Level Miami Center
Sun 01:27:12 AM 20.0136 -68.8711 134° Southeast 480 552 33,000  Level Miami Center
Sun 01:28:09 AM 19.9125 -68.7714 137° Southeast 480 552 33,000  Level Miami Center
Sun 01:29:10 AM 19.8181 -68.6733 136° Southeast 486 559 33,000  Level Miami Center
Sun 01:30:11 AM 19.7089 -68.5764 140° Southeast 501 577 33,000  Level Miami Center
Sun 01:31:09 AM 19.6122 -68.4769 136° Southeast 496 571 33,000  Level Miami Center
Sun 01:31:32 AM 19.5667 -68.4167 129° Southeast 490 564 33,000  Level San Juan Center
Sun 01:32:32 AM 19.4667 -68.3333 142° Southeast 480 552 33,000  Level San Juan Center
Sun 01:33:33 AM 19.3667 -68.2333 137° Southeast 480 552 33,000  Level San Juan Center
Sun 01:34:33 AM 19.2667 -68.1333 137° Southeast 490 564 33,000  Level San Juan Center
Sun 01:35:33 AM 19.1667 -68.0333 137° Southeast 480 552 33,000  Level San Juan Center
Sun 01:36:34 AM 19.0667 -67.9500 142° Southeast 480 552 33,000  Level San Juan Center
Sun 01:37:34 AM 18.9667 -67.8500 137° Southeast 490 564 33,000  Level San Juan Center
Sun 01:38:34 AM 18.8667 -67.7500 137° Southeast 480 552 33,000  Level San Juan Center
Sun 01:39:35 AM 18.7667 -67.6500 137° Southeast 490 564 33,000  Level San Juan Center
Sun 01:40:35 AM 18.6667 -67.5667 142° Southeast 480 552 33,000  Level San Juan Center
Sun 01:41:35 AM 18.5667 -67.4667 137° Southeast 490 564 33,000  Level San Juan Center
Sun 01:42:36 AM 18.4667 -67.3667 137° Southeast 490 564 33,000  Level San Juan Center
Sun 01:43:36 AM 18.3667 -67.2667 136° Southeast 490 564 33,000  Level San Juan Center
Sun 01:44:36 AM 18.2667 -67.1667 136° Southeast 480 552 33,000  Level San Juan Center
Sun 01:45:36 AM 18.1667 -67.0833 142° Southeast 490 564 33,000  Level San Juan Center
Sun 01:46:37 AM 18.0667 -66.9833 136° Southeast 490 564 33,000  Level San Juan Center
Sun 01:47:37 AM 17.9667 -66.8833 136° Southeast 490 564 33,000  Level San Juan Center
Sun 01:48:37 AM 17.8667 -66.7833 136° Southeast 490 564 33,000  Level San Juan Center
Sun 01:49:37 AM 17.7667 -66.7000 142° Southeast 490 564 33,000  Level San Juan Center
Sun 01:50:38 AM 17.6667 -66.6000 136° Southeast 480 552 33,000  Level San Juan Center
Sun 01:51:38 AM 17.5667 -66.5000 136° Southeast 490 564 33,000  Level San Juan Center
Sun 01:52:38 AM 17.4667 -66.4000 136° Southeast 490 564 33,000  Level San Juan Center
Sun 01:53:39 AM 17.3500 -66.3000 141° Southeast 490 564 33,000  Level San Juan Center
Sun 01:54:39 AM 17.2500 -66.2000 136° Southeast 490 564 33,000  Level San Juan Center
Sun 01:55:39 AM 17.1500 -66.1000 136° Southeast 490 564 33,000  Level San Juan Center
Sun 01:56:40 AM 17.0500 -66.0000 136° Southeast 500 575 33,000  Level San Juan Center
Sun 01:57:40 AM 16.9333 -65.9000 141° Southeast 500 575 33,000  Level San Juan Center
Sun 01:58:40 AM 16.8333 -65.8000 136° Southeast 510 587 33,000  Level San Juan Center
Sun 01:59:41 AM 16.7333 -65.7000 136° Southeast 520 598 33,000  Level San Juan Center
Sun 02:00:41 AM 16.6167 -65.6000 141° Southeast 520 598 33,000  Level San Juan Center
Sun 02:01:41 AM 16.5167 -65.5000 136° Southeast 520 598 33,000  Level San Juan Center
Sun 02:02:42 AM 16.4000 -65.4000 141° Southeast 510 587 33,000  Level San Juan Center
Sun 02:03:42 AM 16.3000 -65.3000 136° Southeast 510 587 33,000  Level San Juan Center
Sun 02:04:42 AM 16.1833 -65.2167 146° Southeast 500 575 33,000  Level San Juan Center
Sun 02:05:42 AM 16.0667 -65.1167 141° Southeast 500 575 33,000  Level San Juan Center
Sun 02:06:43 AM 15.9667 -65.0333 141° Southeast 500 575 33,000  Level San Juan Center
Sun 02:07:43 AM 15.8667 -64.9333 136° Southeast 490 564 33,000  Level San Juan Center
Sun 02:08:43 AM 15.7667 -64.8500 141° Southeast 470 541 33,000  Level San Juan Center
Sun 02:09:44 AM 15.6833 -64.7500 131° Southeast 500 575 33,000  Level San Juan Center
Sun 02:10:44 AM 15.5833 -64.6500 136° Southeast 490 564 33,000  Level San Juan Center
Sun 02:11:44 AM 15.4833 -64.5500 136° Southeast 490 564 33,000  Level San Juan Center
Sun 02:12:45 AM 15.3833 -64.4667 141° Southeast 480 552 33,000  Level San Juan Center
Sun 02:13:45 AM 15.2667 -64.3833 145° Southeast 480 552 33,000  Level San Juan Center
Sun 02:14:45 AM 15.1667 -64.2833 136° Southeast 490 564 33,000  Level San Juan Center
Sun 02:15:46 AM 15.0667 -64.1833 136° Southeast 490 564 33,000  Level San Juan Center
Sun 02:16:46 AM 14.9667 -64.1000 141° Southeast 490 564 33,000  Level San Juan Center
Sun 02:17:46 AM 14.8500 -64.0333 151° Southeast 480 552 33,000  Level San Juan Center
Sun 02:19:00 AM 14.7115 -63.9507 150° Southeast  Level FlightAware Approximate
Sun 02:26:00 AM 13.9222 -63.4887 151° Southeast  Level FlightAware Approximate
Sun 02:27:00 AM 13.8084 -63.4248 151° Southeast  Level FlightAware Approximate
Sun 02:28:00 AM 13.6945 -63.3610 151° Southeast  Level FlightAware Approximate
Sun 02:29:00 AM 13.5807 -63.2973 151° Southeast  Level FlightAware Approximate
Sun 02:30:00 AM 13.4668 -63.2336 151° Southeast  Level FlightAware Approximate
Sun 02:31:00 AM 13.3529 -63.1700 151° Southeast  Level FlightAware Approximate
Sun 02:32:00 AM 13.2390 -63.1064 151° Southeast  Level FlightAware Approximate
Sun 02:33:00 AM 13.1250 -63.0429 152° Southeast  Level FlightAware Approximate
Sun 02:34:00 AM 13.0111 -62.9795 152° Southeast  Level FlightAware Approximate
Sun 02:35:00 AM 12.8971 -62.9161 152° Southeast  Level FlightAware Approximate
Sun 02:36:00 AM 12.7832 -62.8528 152° Southeast  Level FlightAware Approximate
Sun 02:37:00 AM 12.6692 -62.7895 152° Southeast  Level FlightAware Approximate
Sun 02:38:00 AM 12.5552 -62.7263 152° Southeast  Level FlightAware Approximate
Sun 02:39:00 AM 12.4411 -62.6631 152° Southeast  Level FlightAware Approximate
Sun 02:40:00 AM 12.3271 -62.6000 152° Southeast  Level FlightAware Approximate
Sun 02:41:00 AM 12.2130 -62.5370 152° Southeast  Level FlightAware Approximate
Sun 02:42:00 AM 12.0990 -62.4740 152° Southeast  Level FlightAware Approximate
Sun 02:43:00 AM 11.9849 -62.4110 152° Southeast  Level FlightAware Approximate
Sun 02:44:00 AM 11.8708 -62.3482 152° Southeast  Level FlightAware Approximate
Sun 02:45:00 AM 11.7567 -62.2853 152° Southeast  Level FlightAware Approximate
Sun 02:46:00 AM 11.6426 -62.2226 152° Southeast  Level FlightAware Approximate
Sun 02:47:00 AM 11.5284 -62.1598 152° Southeast  Level FlightAware Approximate
Sun 02:48:00 AM 11.4143 -62.0971 152° Southeast  Level FlightAware Approximate
Sun 02:49:00 AM 11.3001 -62.0345 152° Southeast  Level FlightAware Approximate
Sun 02:50:00 AM 11.1859 -61.9719 152° Southeast  Level FlightAware Approximate
Sun 02:51:00 AM 11.0717 -61.9094 152° Southeast  Level FlightAware Approximate
Sun 02:52:00 AM 10.9576 -61.8469 152° Southeast  Level FlightAware Approximate
Sun 02:53:00 AM 10.8433 -61.7845 152° Southeast  Level FlightAware Approximate
Sun 02:54:00 AM 10.7291 -61.7221 152° Southeast  Level FlightAware Approximate
Sun 02:55:00 AM 10.6149 -61.6598 152° Southeast  Level FlightAware Approximate
Sun 02:56:00 AM 10.5006 -61.5975 152° Southeast  Level FlightAware Approximate
Sun 02:57:00 AM 10.3863 -61.5353 152° Southeast  Level FlightAware Approximate
Sun 02:58:00 AM 10.2721 -61.4731 152° Southeast  Level FlightAware Approximate
Sun 02:59:00 AM 10.1578 -61.4109 152° Southeast  Level FlightAware Approximate
Sun 03:00:00 AM 10.0435 -61.3488 152° Southeast  Level FlightAware Approximate
Sun 03:01:00 AM 9.9292 -61.2867 152° Southeast  Level FlightAware Approximate
Sun 03:02:00 AM 9.8148 -61.2247 152° Southeast  Level FlightAware Approximate
Sun 03:03:00 AM 9.7006 -61.1626 152° Southeast  Level FlightAware Approximate
Sun 03:04:00 AM 9.5864 -61.1004 152° Southeast  Level FlightAware Approximate
Sun 03:05:00 AM 9.4722 -61.0383 152° Southeast  Level FlightAware Approximate
Sun 03:06:00 AM 9.3579 -60.9762 152° Southeast  Level FlightAware Approximate
Sun 03:07:00 AM 9.2437 -60.9142 152° Southeast  Level FlightAware Approximate
Sun 03:08:00 AM 9.1294 -60.8521 152° Southeast  Level FlightAware Approximate
Sun 03:09:00 AM 9.0151 -60.7902 152° Southeast  Level FlightAware Approximate
Sun 03:10:00 AM 8.9008 -60.7283 152° Southeast  Level FlightAware Approximate
Sun 03:11:00 AM 8.7865 -60.6664 152° Southeast  Level FlightAware Approximate
Sun 03:12:00 AM 8.6722 -60.6045 152° Southeast  Level FlightAware Approximate
Sun 03:13:00 AM 8.5579 -60.5428 152° Southeast  Level FlightAware Approximate
Sun 03:14:00 AM 8.4436 -60.4810 152° Southeast  Level FlightAware Approximate
Sun 03:15:00 AM 8.3309 -60.4202 152° Southeast  Level FlightAware Approximate
Sun 03:16:00 AM 8.2183 -60.3594 152° Southeast  Level FlightAware Approximate
Sun 03:17:00 AM 8.1056 -60.2986 152° Southeast  Level FlightAware Approximate
Sun 03:18:00 AM 7.9929 -60.2379 152° Southeast  Level FlightAware Approximate
Sun 03:19:00 AM 7.8802 -60.1773 152° Southeast  Level FlightAware Approximate
Sun 03:20:00 AM 7.7676 -60.1166 152° Southeast  Level FlightAware Approximate
Sun 03:21:00 AM 7.6549 -60.0560 152° Southeast  Level FlightAware Approximate
Sun 03:22:00 AM 7.5422 -59.9954 152° Southeast  Level FlightAware Approximate
Sun 03:23:00 AM 7.4295 -59.9349 152° Southeast  Level FlightAware Approximate
Sun 03:24:00 AM 7.3168 -59.8744 152° Southeast  Level FlightAware Approximate
Sun 03:25:00 AM 7.2040 -59.8139 152° Southeast  Level FlightAware Approximate
Sun 03:26:00 AM 7.0913 -59.7534 152° Southeast  Level FlightAware Approximate
Sun 03:27:00 AM 6.9785 -59.6930 152° Southeast  Level FlightAware Approximate
Sun 03:28:00 AM 6.8658 -59.6326 152° Southeast  Level FlightAware Approximate
Sun 03:29:00 AM 6.7530 -59.5722 152° Southeast  Level FlightAware Approximate
Sun 03:30:00 AM 6.6403 -59.5119 152° Southeast  Level FlightAware Approximate
Sun 03:31:00 AM 6.5275 -59.4516 152° Southeast  Level FlightAware Approximate
Sun 03:32:00 AM 6.4147 -59.3913 152° Southeast  Level FlightAware Approximate
Sun 03:33:00 AM 6.3019 -59.3310 152° Southeast  Level FlightAware Approximate
Sun 03:34:00 AM 6.1891 -59.2708 152° Southeast  Level FlightAware Approximate
Sun 03:35:00 AM 6.0763 -59.2106 152° Southeast  Level FlightAware Approximate
Sun 03:36:00 AM 5.9635 -59.1504 152° Southeast  Level FlightAware Approximate
Sun 03:37:00 AM 5.8507 -59.0902 152° Southeast  Level FlightAware Approximate
Sun 03:38:00 AM 5.7379 -59.0301 152° Southeast  Level FlightAware Approximate
Sun 03:39:00 AM 5.6251 -58.9700 152° Southeast  Level FlightAware Approximate
Sun 03:40:00 AM 5.5122 -58.9099 152° Southeast  Level FlightAware Approximate
Sun 03:41:00 AM 5.3994 -58.8498 152° Southeast  Level FlightAware Approximate
Sun 03:42:00 AM 5.2866 -58.7898 152° Southeast  Level FlightAware Approximate
Sun 03:43:00 AM 5.1737 -58.7298 152° Southeast  Level FlightAware Approximate
Sun 03:44:00 AM 5.0609 -58.6698 152° Southeast  Level FlightAware Approximate
Sun 03:45:00 AM 4.9480 -58.6098 152° Southeast  Level FlightAware Approximate
Sun 03:46:00 AM 4.8351 -58.5498 152° Southeast  Level FlightAware Approximate
Sun 03:47:00 AM 4.7222 -58.4899 152° Southeast  Level FlightAware Approximate
Sun 03:48:00 AM 4.6094 -58.4300 152° Southeast  Level FlightAware Approximate
Sun 03:49:00 AM 4.4965 -58.3701 152° Southeast  Level FlightAware Approximate
Sun 03:50:00 AM 4.3836 -58.3102 152° Southeast  Level FlightAware Approximate
Sun 03:51:00 AM 4.2707 -58.2504 152° Southeast  Level FlightAware Approximate
Sun 03:52:00 AM 4.1578 -58.1905 152° Southeast  Level FlightAware Approximate
Sun 03:53:00 AM 4.0449 -58.1307 152° Southeast  Level FlightAware Approximate
Sun 03:54:00 AM 3.9320 -58.0709 152° Southeast  Level FlightAware Approximate
Sun 03:55:00 AM 3.8191 -58.0111 152° Southeast  Level FlightAware Approximate
Sun 03:56:00 AM 3.7063 -57.9511 152° Southeast  Level FlightAware Approximate
Sun 03:57:00 AM 3.5936 -57.8910 152° Southeast  Level FlightAware Approximate
Sun 03:58:00 AM 3.4809 -57.8308 152° Southeast  Level FlightAware Approximate
Sun 03:59:00 AM 3.3682 -57.7707 152° Southeast  Level FlightAware Approximate
Sun 04:00:00 AM 3.2555 -57.7106 152° Southeast  Level FlightAware Approximate
Sun 04:01:00 AM 3.1427 -57.6505 152° Southeast  Level FlightAware Approximate
Sun 04:02:00 AM 3.0300 -57.5904 152° Southeast  Level FlightAware Approximate
Sun 04:03:00 AM 2.9171 -57.5307 152° Southeast  Level FlightAware Approximate
Sun 04:04:00 AM 2.8041 -57.4711 152° Southeast  Level FlightAware Approximate
Sun 04:05:00 AM 2.6911 -57.4115 152° Southeast  Level FlightAware Approximate
Sun 04:06:00 AM 2.5782 -57.3518 152° Southeast  Level FlightAware Approximate
Sun 04:07:00 AM 2.4652 -57.2922 152° Southeast  Level FlightAware Approximate
Sun 04:08:00 AM 2.3522 -57.2326 152° Southeast  Level FlightAware Approximate
Sun 04:09:00 AM 2.2393 -57.1730 152° Southeast  Level FlightAware Approximate
Sun 04:10:00 AM 2.1263 -57.1135 152° Southeast  Level FlightAware Approximate
Sun 04:11:00 AM 2.0133 -57.0539 152° Southeast  Level FlightAware Approximate
Sun 04:12:00 AM 1.9003 -56.9943 152° Southeast  Level FlightAware Approximate
Sun 04:13:00 AM 1.7874 -56.9348 152° Southeast  Level FlightAware Approximate
Sun 04:14:00 AM 1.6744 -56.8752 152° Southeast  Level FlightAware Approximate
Sun 04:15:00 AM 1.5614 -56.8157 152° Southeast  Level FlightAware Approximate
Sun 04:16:00 AM 1.4484 -56.7562 152° Southeast  Level FlightAware Approximate
Sun 04:17:00 AM 1.3354 -56.6968 152° Southeast  Level FlightAware Approximate
Sun 04:18:00 AM 1.2223 -56.6373 152° Southeast  Level FlightAware Approximate
Sun 04:19:00 AM 1.1093 -56.5779 152° Southeast  Level FlightAware Approximate
Sun 04:20:00 AM 0.9963 -56.5185 152° Southeast  Level FlightAware Approximate
Sun 04:21:00 AM 0.8832 -56.4590 152° Southeast  Level FlightAware Approximate
Sun 04:22:00 AM 0.7702 -56.3996 152° Southeast  Level FlightAware Approximate
Sun 04:23:00 AM 0.6574 -56.3403 152° Southeast  Level FlightAware Approximate
Sun 04:24:00 AM 0.5445 -56.2810 152° Southeast  Level FlightAware Approximate
Sun 04:25:00 AM 0.4317 -56.2217 152° Southeast  Level FlightAware Approximate
Sun 04:26:00 AM 0.3189 -56.1624 152° Southeast  Level FlightAware Approximate
Sun 04:27:00 AM 0.2060 -56.1031 152° Southeast  Level FlightAware Approximate
Sun 04:28:00 AM 0.0932 -56.0438 152° Southeast  Level FlightAware Approximate
Sun 04:29:00 AM -0.0196 -55.9845 152° Southeast  Level FlightAware Approximate
Sun 04:30:00 AM -0.1324 -55.9252 152° Southeast  Level FlightAware Approximate
Sun 04:31:00 AM -0.2453 -55.8659 152° Southeast  Level FlightAware Approximate
Sun 04:32:00 AM -0.3581 -55.8066 152° Southeast  Level FlightAware Approximate
Sun 04:33:00 AM -0.4709 -55.7473 152° Southeast  Level FlightAware Approximate
Sun 04:34:00 AM -0.5838 -55.6880 152° Southeast  Level FlightAware Approximate
Sun 04:35:00 AM -0.6966 -55.6287 152° Southeast  Level FlightAware Approximate
Sun 04:36:00 AM -0.8094 -55.5694 152° Southeast  Level FlightAware Approximate
Sun 04:37:00 AM -0.9223 -55.5101 152° Southeast  Level FlightAware Approximate
Sun 04:38:00 AM -1.0351 -55.4507 152° Southeast  Level FlightAware Approximate
Sun 04:39:00 AM -1.1479 -55.3914 152° Southeast  Level FlightAware Approximate
Sun 04:40:00 AM -1.2608 -55.3321 152° Southeast  Level FlightAware Approximate
Sun 04:41:00 AM -1.3736 -55.2728 152° Southeast  Level FlightAware Approximate
Sun 04:42:00 AM -1.4864 -55.2134 152° Southeast  Level FlightAware Approximate
Sun 04:43:00 AM -1.5992 -55.1541 152° Southeast  Level FlightAware Approximate
Sun 04:44:00 AM -1.7120 -55.0947 152° Southeast  Level FlightAware Approximate
Sun 04:45:00 AM -1.8249 -55.0354 152° Southeast  Level FlightAware Approximate
Sun 04:46:00 AM -1.9377 -54.9760 152° Southeast  Level FlightAware Approximate
Sun 04:47:00 AM -2.0505 -54.9167 152° Southeast  Level FlightAware Approximate
Sun 04:48:00 AM -2.1633 -54.8573 152° Southeast  Level FlightAware Approximate
Sun 04:49:00 AM -2.2761 -54.7979 152° Southeast  Level FlightAware Approximate
Sun 04:50:00 AM -2.3889 -54.7385 152° Southeast  Level FlightAware Approximate
Sun 04:51:00 AM -2.5017 -54.6791 152° Southeast  Level FlightAware Approximate
Sun 04:52:00 AM -2.6145 -54.6197 152° Southeast  Level FlightAware Approximate
Sun 04:53:00 AM -2.7273 -54.5602 152° Southeast  Level FlightAware Approximate
Sun 04:54:00 AM -2.8401 -54.5008 152° Southeast  Level FlightAware Approximate
Sun 04:55:00 AM -2.9529 -54.4413 152° Southeast  Level FlightAware Approximate
Sun 04:56:00 AM -3.0657 -54.3819 152° Southeast  Level FlightAware Approximate
Sun 04:57:00 AM -3.1785 -54.3224 152° Southeast  Level FlightAware Approximate
Sun 04:58:00 AM -3.2913 -54.2629 152° Southeast  Level FlightAware Approximate
Sun 04:59:00 AM -3.4041 -54.2034 152° Southeast  Level FlightAware Approximate
Sun 05:00:00 AM -3.5168 -54.1439 152° Southeast  Level FlightAware Approximate
Sun 05:01:00 AM -3.6296 -54.0844 152° Southeast  Level FlightAware Approximate
Sun 05:02:00 AM -3.7424 -54.0248 152° Southeast  Level FlightAware Approximate
Sun 05:03:00 AM -3.8551 -53.9653 152° Southeast  Level FlightAware Approximate
Sun 05:04:00 AM -3.9679 -53.9057 152° Southeast  Level FlightAware Approximate
Sun 05:05:00 AM -4.0807 -53.8461 152° Southeast  Level FlightAware Approximate
Sun 05:06:00 AM -4.1934 -53.7865 152° Southeast  Level FlightAware Approximate
Sun 05:07:00 AM -4.3062 -53.7269 152° Southeast  Level FlightAware Approximate
Sun 05:08:00 AM -4.4189 -53.6672 152° Southeast  Level FlightAware Approximate
Sun 05:09:00 AM -4.5316 -53.6076 152° Southeast  Level FlightAware Approximate
Sun 05:10:00 AM -4.6444 -53.5479 152° Southeast  Level FlightAware Approximate
Sun 05:11:00 AM -4.7571 -53.4882 152° Southeast  Level FlightAware Approximate
Sun 05:12:00 AM -4.8698 -53.4285 152° Southeast  Level FlightAware Approximate
Sun 05:13:00 AM -4.9825 -53.3687 152° Southeast  Level FlightAware Approximate
Sun 05:14:00 AM -5.0953 -53.3090 152° Southeast  Level FlightAware Approximate
Sun 05:15:00 AM -5.2080 -53.2492 152° Southeast  Level FlightAware Approximate
Sun 05:16:00 AM -5.3207 -53.1894 152° Southeast  Level FlightAware Approximate
Sun 05:17:00 AM -5.4334 -53.1296 152° Southeast  Level FlightAware Approximate
Sun 05:18:00 AM -5.5461 -53.0697 152° Southeast  Level FlightAware Approximate
Sun 05:19:00 AM -5.6587 -53.0099 152° Southeast  Level FlightAware Approximate
Sun 05:20:00 AM -5.7714 -52.9500 152° Southeast  Level FlightAware Approximate
Sun 05:21:00 AM -5.8841 -52.8900 152° Southeast  Level FlightAware Approximate
Sun 05:22:00 AM -5.9967 -52.8301 152° Southeast  Level FlightAware Approximate
Sun 05:23:00 AM -6.1094 -52.7701 152° Southeast  Level FlightAware Approximate
Sun 05:24:00 AM -6.2221 -52.7102 152° Southeast  Level FlightAware Approximate
Sun 05:25:00 AM -6.3347 -52.6501 152° Southeast  Level FlightAware Approximate
Sun 05:26:00 AM -6.4473 -52.5901 152° Southeast  Level FlightAware Approximate
Sun 05:27:00 AM -6.5600 -52.5300 152° Southeast  Level FlightAware Approximate
Sun 05:28:00 AM -6.6726 -52.4699 152° Southeast  Level FlightAware Approximate
Sun 05:29:00 AM -6.7852 -52.4098 152° Southeast  Level FlightAware Approximate
Sun 05:30:00 AM -6.8978 -52.3497 152° Southeast  Level FlightAware Approximate
Sun 05:31:00 AM -7.0104 -52.2895 152° Southeast  Level FlightAware Approximate
Sun 05:32:00 AM -7.1230 -52.2293 152° Southeast  Level FlightAware Approximate
Sun 05:33:00 AM -7.2356 -52.1690 152° Southeast  Level FlightAware Approximate
Sun 05:34:00 AM -7.3482 -52.1088 152° Southeast  Level FlightAware Approximate
Sun 05:35:00 AM -7.4607 -52.0485 152° Southeast  Level FlightAware Approximate
Sun 05:36:00 AM -7.5733 -51.9881 152° Southeast  Level FlightAware Approximate
Sun 05:37:00 AM -7.6859 -51.9278 152° Southeast  Level FlightAware Approximate
Sun 05:38:00 AM -7.7984 -51.8674 152° Southeast  Level FlightAware Approximate
Sun 05:39:00 AM -7.9109 -51.8069 152° Southeast  Level FlightAware Approximate
Sun 05:40:00 AM -8.0235 -51.7465 152° Southeast  Level FlightAware Approximate
Sun 05:41:00 AM -8.1360 -51.6860 152° Southeast  Level FlightAware Approximate
Sun 05:42:00 AM -8.2485 -51.6255 152° Southeast  Level FlightAware Approximate
Sun 05:43:00 AM -8.3610 -51.5649 152° Southeast  Level FlightAware Approximate
Sun 05:44:00 AM -8.4735 -51.5043 152° Southeast  Level FlightAware Approximate
Sun 05:45:00 AM -8.5860 -51.4437 152° Southeast  Level FlightAware Approximate
Sun 05:46:00 AM -8.6984 -51.3830 152° Southeast  Level FlightAware Approximate
Sun 05:47:00 AM -8.8109 -51.3223 152° Southeast  Level FlightAware Approximate
Sun 05:48:00 AM -8.9234 -51.2616 152° Southeast  Level FlightAware Approximate
Sun 05:49:00 AM -9.0358 -51.2008 152° Southeast  Level FlightAware Approximate
Sun 05:50:00 AM -9.1482 -51.1400 152° Southeast  Level FlightAware Approximate
Sun 05:51:00 AM -9.2606 -51.0791 152° Southeast  Level FlightAware Approximate
Sun 05:52:00 AM -9.3730 -51.0182 152° Southeast  Level FlightAware Approximate
Sun 05:53:00 AM -9.4854 -50.9573 152° Southeast  Level FlightAware Approximate
Sun 05:54:00 AM -9.5978 -50.8963 152° Southeast  Level FlightAware Approximate
Sun 05:55:00 AM -9.7102 -50.8353 152° Southeast  Level FlightAware Approximate
Sun 05:56:00 AM -9.8226 -50.7743 152° Southeast  Level FlightAware Approximate
Sun 05:57:00 AM -9.9349 -50.7132 152° Southeast  Level FlightAware Approximate
Sun 05:58:00 AM -10.0473 -50.6520 152° Southeast  Level FlightAware Approximate
Sun 05:59:00 AM -10.1596 -50.5909 152° Southeast  Level FlightAware Approximate
Sun 06:00:00 AM -10.2720 -50.5296 152° Southeast  Level FlightAware Approximate
Sun 06:01:00 AM -10.3843 -50.4684 152° Southeast  Level FlightAware Approximate
Sun 06:02:00 AM -10.4966 -50.4071 152° Southeast  Level FlightAware Approximate
Sun 06:03:00 AM -10.6089 -50.3457 152° Southeast  Level FlightAware Approximate
Sun 06:04:00 AM -10.7212 -50.2843 152° Southeast  Level FlightAware Approximate
Sun 06:05:00 AM -10.8334 -50.2228 152° Southeast  Level FlightAware Approximate
Sun 06:06:00 AM -10.9457 -50.1614 152° Southeast  Level FlightAware Approximate
Sun 06:07:00 AM -11.0579 -50.0998 152° Southeast  Level FlightAware Approximate
Sun 06:08:00 AM -11.1701 -50.0382 152° Southeast  Level FlightAware Approximate
Sun 06:09:00 AM -11.2824 -49.9766 152° Southeast  Level FlightAware Approximate
Sun 06:10:00 AM -11.3946 -49.9149 152° Southeast  Level FlightAware Approximate
Sun 06:11:00 AM -11.5068 -49.8532 152° Southeast  Level FlightAware Approximate
Sun 06:12:00 AM -11.6189 -49.7914 152° Southeast  Level FlightAware Approximate
Sun 06:13:00 AM -11.7311 -49.7296 152° Southeast  Level FlightAware Approximate
Sun 06:14:00 AM -11.8433 -49.6677 152° Southeast  Level FlightAware Approximate
Sun 06:15:00 AM -11.9554 -49.6058 152° Southeast  Level FlightAware Approximate
Sun 06:16:00 AM -12.0675 -49.5438 152° Southeast  Level FlightAware Approximate
Sun 06:17:00 AM -12.1797 -49.4818 152° Southeast  Level FlightAware Approximate
Sun 06:18:00 AM -12.2917 -49.4197 152° Southeast  Level FlightAware Approximate
Sun 06:19:00 AM -12.4038 -49.3575 152° Southeast  Level FlightAware Approximate
Sun 06:20:00 AM -12.5159 -49.2953 152° Southeast  Level FlightAware Approximate
Sun 06:21:00 AM -12.6280 -49.2331 152° Southeast  Level FlightAware Approximate
Sun 06:22:00 AM -12.7400 -49.1708 152° Southeast  Level FlightAware Approximate
Sun 06:23:00 AM -12.8520 -49.1084 152° Southeast  Level FlightAware Approximate
Sun 06:24:00 AM -12.9640 -49.0460 151° Southeast  Level FlightAware Approximate
Sun 06:25:00 AM -13.0760 -48.9835 151° Southeast  Level FlightAware Approximate
Sun 06:26:00 AM -13.1880 -48.9210 151° Southeast  Level FlightAware Approximate
Sun 06:27:00 AM -13.3000 -48.8584 151° Southeast  Level FlightAware Approximate
Sun 06:28:00 AM -13.4119 -48.7958 151° Southeast  Level FlightAware Approximate
Sun 06:29:00 AM -13.5239 -48.7331 151° Southeast  Level FlightAware Approximate
Sun 06:30:00 AM -13.6358 -48.6703 151° Southeast  Level FlightAware Approximate
Sun 06:31:00 AM -13.7477 -48.6075 151° Southeast  Level FlightAware Approximate
Sun 06:32:00 AM -13.8596 -48.5446 151° Southeast  Level FlightAware Approximate
Sun 06:33:00 AM -13.9715 -48.4817 151° Southeast  Level FlightAware Approximate
Sun 06:34:00 AM -14.0833 -48.4187 151° Southeast  Level FlightAware Approximate
Sun 06:35:00 AM -14.1952 -48.3556 151° Southeast  Level FlightAware Approximate
Sun 06:36:00 AM -14.3070 -48.2925 151° Southeast  Level FlightAware Approximate
Sun 06:37:00 AM -14.4188 -48.2293 151° Southeast  Level FlightAware Approximate
Sun 06:38:00 AM -14.5306 -48.1661 151° Southeast  Level FlightAware Approximate
Sun 06:39:00 AM -14.6424 -48.1028 151° Southeast  Level FlightAware Approximate
Sun 06:40:00 AM -14.7541 -48.0394 151° Southeast  Level FlightAware Approximate
Sun 06:41:00 AM -14.8659 -47.9759 151° Southeast  Level FlightAware Approximate
Sun 06:42:00 AM -14.9776 -47.9124 151° Southeast  Level FlightAware Approximate
Sun 06:43:00 AM -15.0893 -47.8489 151° Southeast  Level FlightAware Approximate
Sun 06:44:00 AM -15.2010 -47.7852 151° Southeast  Level FlightAware Approximate
Sun 06:45:00 AM -15.3126 -47.7215 151° Southeast  Level FlightAware Approximate
Sun 06:46:00 AM -15.4243 -47.6577 151° Southeast  Level FlightAware Approximate
Sun 06:47:00 AM -15.5353 -47.5942 151° Southeast  Level FlightAware Approximate
Sun 06:48:00 AM -15.6463 -47.5307 151° Southeast  Level FlightAware Approximate
Sun 06:49:00 AM -15.7573 -47.4670 151° Southeast  Level FlightAware Approximate
Sun 06:50:00 AM -15.8682 -47.4033 151° Southeast  Level FlightAware Approximate
Sun 06:51:00 AM -15.9792 -47.3396 151° Southeast  Level FlightAware Approximate
Sun 06:52:00 AM -16.0901 -47.2757 151° Southeast  Level FlightAware Approximate
Sun 06:53:00 AM -16.2010 -47.2118 151° Southeast  Level FlightAware Approximate
Sun 06:54:00 AM -16.3119 -47.1478 151° Southeast  Level FlightAware Approximate
Sun 06:55:00 AM -16.4228 -47.0838 151° Southeast  Level FlightAware Approximate
Sun 06:56:00 AM -16.5336 -47.0196 151° Southeast  Level FlightAware Approximate
Sun 06:57:00 AM -16.6445 -46.9554 151° Southeast  Level FlightAware Approximate
Sun 06:58:00 AM -16.7553 -46.8911 151° Southeast  Level FlightAware Approximate
Sun 06:59:00 AM -16.8661 -46.8268 151° Southeast  Level FlightAware Approximate
Sun 07:00:00 AM -16.9769 -46.7623 151° Southeast  Level FlightAware Approximate
Sun 07:01:00 AM -17.0876 -46.6978 151° Southeast  Level FlightAware Approximate
Sun 07:02:00 AM -17.1983 -46.6333 151° Southeast  Level FlightAware Approximate
Sun 07:03:00 AM -17.3090 -46.5686 151° Southeast  Level FlightAware Approximate
Sun 07:04:00 AM -17.4197 -46.5038 151° Southeast  Level FlightAware Approximate
Sun 07:05:00 AM -17.5304 -46.4390 151° Southeast  Level FlightAware Approximate
Sun 07:06:00 AM -17.6411 -46.3741 151° Southeast  Level FlightAware Approximate
Sun 07:07:00 AM -17.7517 -46.3092 151° Southeast  Level FlightAware Approximate
Sun 07:08:00 AM -17.8623 -46.2441 151° Southeast  Level FlightAware Approximate
Sun 07:09:00 AM -17.9729 -46.1790 151° Southeast  Level FlightAware Approximate
Sun 07:10:00 AM -18.0834 -46.1137 151° Southeast  Level FlightAware Approximate
Sun 07:11:00 AM -18.1940 -46.0484 151° Southeast  Level FlightAware Approximate
Sun 07:12:00 AM -18.3045 -45.9831 151° Southeast  Level FlightAware Approximate
Sun 07:13:00 AM -18.4150 -45.9176 151° Southeast  Level FlightAware Approximate
Sun 07:14:00 AM -18.5255 -45.8520 151° Southeast  Level FlightAware Approximate
Sun 07:15:00 AM -18.6359 -45.7864 151° Southeast  Level FlightAware Approximate
Sun 07:16:00 AM -18.7463 -45.7207 151° Southeast  Level FlightAware Approximate
Sun 07:17:00 AM -18.8568 -45.6549 151° Southeast  Level FlightAware Approximate
Sun 07:18:00 AM -18.9671 -45.5890 151° Southeast  Level FlightAware Approximate
Sun 07:19:00 AM -19.0775 -45.5230 151° Southeast  Level FlightAware Approximate
Sun 07:20:00 AM -19.1878 -45.4569 151° Southeast  Level FlightAware Approximate
Sun 07:21:00 AM -19.2981 -45.3908 150° Southeast  Level FlightAware Approximate
Sun 07:22:00 AM -19.4084 -45.3245 150° Southeast  Level FlightAware Approximate
Sun 07:23:00 AM -19.5187 -45.2582 150° Southeast  Level FlightAware Approximate
Sun 07:24:00 AM -19.6289 -45.1917 150° Southeast  Level FlightAware Approximate
Sun 07:25:00 AM -19.7391 -45.1252 150° Southeast  Level FlightAware Approximate
Sun 07:26:00 AM -19.8493 -45.0586 150° Southeast  Level FlightAware Approximate
Sun 07:27:00 AM -19.9595 -44.9919 150° Southeast  Level FlightAware Approximate
Sun 07:28:00 AM -20.0696 -44.9251 150° Southeast  Level FlightAware Approximate
Sun 07:29:00 AM -20.1798 -44.8582 150° Southeast  Level FlightAware Approximate
Sun 07:30:00 AM -20.2899 -44.7912 150° Southeast  Level FlightAware Approximate
Sun 07:31:00 AM -20.3999 -44.7241 150° Southeast  Level FlightAware Approximate
Sun 07:32:00 AM -20.5100 -44.6570 150° Southeast  Level FlightAware Approximate
Sun 07:33:00 AM -20.6200 -44.5897 150° Southeast  Level FlightAware Approximate
Sun 07:34:00 AM -20.7299 -44.5223 150° Southeast  Level FlightAware Approximate
Sun 07:35:00 AM -20.8399 -44.4548 150° Southeast  Level FlightAware Approximate
Sun 07:36:00 AM -20.9498 -44.3873 150° Southeast  Level FlightAware Approximate
Sun 07:37:00 AM -21.0567 -44.3143 146° Southeast  Level FlightAware Approximate
Sun 07:38:00 AM -21.1646 -44.2430 150° Southeast  Level FlightAware Approximate
Sun 07:39:00 AM -21.2761 -44.1786 155° Southeast  Level FlightAware Approximate
Sun 07:40:00 AM -21.3877 -44.1141 151° Southeast  Level FlightAware Approximate
Sun 07:41:00 AM -21.4969 -44.0451 146° Southeast  Level FlightAware Approximate
Sun 07:42:00 AM -21.6032 -43.9709 150° Southeast  Level FlightAware Approximate
Sun 07:43:00 AM -21.7128 -43.9024 150° Southeast  Level FlightAware Approximate
Sun 07:44:00 AM -21.8186 -43.8272 146° Southeast  Level FlightAware Approximate
Sun 07:45:00 AM -21.9300 -43.7623 152° Southeast  Level FlightAware Approximate
Sun 07:46:00 AM -22.0424 -43.6991 152° Southeast  Level FlightAware Approximate
Sun 07:47:00 AM -22.1526 -43.6316 148° Southeast  Level FlightAware Approximate
Sun 07:48:00 AM -22.2606 -43.5599 150° Southeast  Level FlightAware Approximate
Sun 07:49:00 AM -22.3699 -43.4904 150° Southeast  Level FlightAware Approximate
Sun 07:50:00 AM -22.4786 -43.4198 148° Southeast  Level FlightAware Approximate
Sun 07:51:00 AM -22.5914 -43.3586 137° Southeast  Level FlightAware Approximate
Sun 07:52:00 AM -22.6964 -43.2819 145° Southeast  Level FlightAware Approximate
Sun 07:53:00 AM -22.8000 -43.2167 151° Southeast  Level FlightAware Approximate
Sun 07:54:00 AM -22.8089 -43.2436 151° Southeast  Level Estimated
Sun 07:55:00 AM -22.8089 -43.2436 151° Southeast  Level Estimated
Sun 07:56:00 AM -22.8089 -43.2436 151° Southeast  Level Estimated
Sun 07:57:00 AM -22.8089 -43.2436 151° Southeast  Level Estimated
Sun 07:58:00 AM -22.8089 -43.2436 151° Southeast  Level Estimated
Sun 07:59:00 AM -22.8089 -43.2436 151° Southeast  Level Estimated
Sun 08:00:00 AM -22.8089 -43.2436 151° Southeast  Level Estimated
Sun 08:01:00 AM -22.8089 -43.2436 151° Southeast  Level Estimated
Sun 08:02:00 AM -22.8089 -43.2436 151° Southeast  Level Estimated
Sun 08:03:00 AM -22.8089 -43.2436 151° Southeast  Level Estimated
Sun 08:04:00 AM -22.8089 -43.2436 151° Southeast  Level Estimated
Sun 08:05:00 AM -22.8089 -43.2436 151° Southeast  Level Estimated
Sun 08:06:00 AM -22.8089 -43.2436 151° Southeast  Level Estimated
Sun 08:07:00 AM -22.8089 -43.2436 151° Southeast  Level Estimated

Login

Don't have an account? Register now (free) for customized features, flight alerts, and more!